Private Wetterstation Sandau
Wetterdaten: Freitag, 26.10.2012
Datum Zeit Temp. A. Feuchte A. Luftdruck Regen Wind Richtung Richtung Taupunkt Windchill
26.10.2012 00:01 6,7 C 86 % 1010,9 hPa 0,0 l/m 6,1 km/h (2 Bft) W 270 4,5 C 5,6 C
26.10.2012 00:06 6,7 C 86 % 1011,0 hPa 0,0 l/m 3,2 km/h (1 Bft) NW 315 4,5 C 6,7 C
26.10.2012 00:11 6,7 C 86 % 1010,9 hPa 0,0 l/m 15,5 km/h (3 Bft) W-SW 247 4,5 C 3,8 C
26.10.2012 00:16 6,8 C 86 % 1011,1 hPa 0,0 l/m 5,8 km/h (2 Bft) W-SW 247 4,6 C 5,9 C
26.10.2012 00:21 6,8 C 86 % 1011,0 hPa 0,0 l/m 4,0 km/h (1 Bft) NW 315 4,6 C 6,8 C
26.10.2012 00:26 6,8 C 85 % 1011,3 hPa 0,0 l/m 15,1 km/h (3 Bft) W 270 4,5 C 4,0 C
26.10.2012 00:31 6,9 C 85 % 1011,2 hPa 0,0 l/m 5,0 km/h (1 Bft) W 270 4,6 C 6,2 C
26.10.2012 00:36 6,9 C 85 % 1011,1 hPa 0,0 l/m 4,0 km/h (1 Bft) W 270 4,6 C 6,9 C
26.10.2012 00:41 6,9 C 85 % 1011,2 hPa 0,0 l/m 11,2 km/h (2 Bft) W 270 4,6 C 4,7 C
26.10.2012 00:46 6,9 C 85 % 1011,2 hPa 0,0 l/m 14,4 km/h (3 Bft) W 270 4,6 C 4,2 C
26.10.2012 00:51 6,9 C 85 % 1011,3 hPa 0,0 l/m 12,2 km/h (2 Bft) W-NW 292 4,6 C 4,5 C
26.10.2012 00:56 6,9 C 85 % 1011,4 hPa 0,0 l/m 10,1 km/h (2 Bft) N-NW 337 4,6 C 4,9 C
26.10.2012 01:01 6,9 C 85 % 1011,6 hPa 0,0 l/m 5,0 km/h (1 Bft) N 360 4,6 C 6,2 C
26.10.2012 01:06 6,9 C 85 % 1011,6 hPa 0,0 l/m 6,8 km/h (2 Bft) W-NW 292 4,6 C 5,7 C
26.10.2012 01:11 6,9 C 84 % 1011,5 hPa 0,0 l/m 18,0 km/h (3 Bft) NW 315 4,4 C 3,7 C
26.10.2012 01:16 6,9 C 83 % 1011,6 hPa 0,0 l/m 5,0 km/h (1 Bft) W-NW 292 4,2 C 6,2 C
26.10.2012 01:21 6,9 C 83 % 1011,7 hPa 0,0 l/m 16,9 km/h (3 Bft) NW 315 4,2 C 3,8 C
26.10.2012 01:26 6,9 C 83 % 1011,8 hPa 0,0 l/m 7,2 km/h (2 Bft) NW 315 4,2 C 5,6 C
26.10.2012 01:31 6,9 C 83 % 1011,7 hPa 0,0 l/m 5,8 km/h (2 Bft) N-NW 337 4,2 C 6,0 C
26.10.2012 01:36 6,9 C 82 % 1012,0 hPa 0,0 l/m 4,0 km/h (1 Bft) W-NW 292 4,0 C 6,9 C
26.10.2012 01:41 6,9 C 82 % 1012,0 hPa 0,0 l/m 15,1 km/h (3 Bft) NW 315 4,0 C 4,1 C
26.10.2012 01:46 6,8 C 82 % 1011,9 hPa 0,0 l/m 0,0 km/h (0 Bft) W-NW 292 3,9 C 6,8 C
26.10.2012 01:51 6,8 C 82 % 1012,0 hPa 0,0 l/m 5,4 km/h (1 Bft) NW 315 3,9 C 6,0 C
26.10.2012 01:56 6,8 C 79 % 1012,1 hPa 0,0 l/m 5,8 km/h (2 Bft) N-NW 337 3,4 C 5,9 C
26.10.2012 02:01 6,7 C 73 % 1012,1 hPa 0,0 l/m 16,6 km/h (3 Bft) N-NO 22 2,2 C 3,6 C
26.10.2012 02:06 6,6 C 72 % 1012,2 hPa 0,0 l/m 14,4 km/h (3 Bft) N-NO 22 1,9 C 3,8 C
26.10.2012 02:11 6,5 C 72 % 1012,2 hPa 0,0 l/m 12,2 km/h (2 Bft) N-NW 337 1,8 C 4,0 C
26.10.2012 02:16 6,4 C 72 % 1012,4 hPa 0,0 l/m 8,3 km/h (2 Bft) N-NO 22 1,7 C 4,7 C
26.10.2012 02:21 6,4 C 71 % 1012,4 hPa 0,0 l/m 3,6 km/h (1 Bft) N-NO 22 1,5 C 6,4 C
26.10.2012 02:26 6,2 C 72 % 1012,5 hPa 0,0 l/m 7,2 km/h (2 Bft) NO 45 1,5 C 4,8 C
26.10.2012 02:31 6,1 C 73 % 1012,6 hPa 0,0 l/m 5,0 km/h (1 Bft) N-NW 337 1,6 C 5,3 C
26.10.2012 02:36 5,9 C 74 % 1012,8 hPa 0,0 l/m 5,4 km/h (1 Bft) N-NO 22 1,6 C 5,0 C
26.10.2012 02:41 5,8 C 74 % 1012,8 hPa 0,0 l/m 6,1 km/h (2 Bft) N-NO 22 1,5 C 4,6 C
26.10.2012 02:46 5,6 C 74 % 1012,9 hPa 0,0 l/m 6,8 km/h (2 Bft) N 360 1,3 C 4,2 C
26.10.2012 02:51 5,5 C 74 % 1013,0 hPa 0,0 l/m 4,7 km/h (1 Bft) N-NO 22 1,2 C 4,8 C
26.10.2012 02:56 5,3 C 75 % 1013,0 hPa 0,0 l/m 7,6 km/h (2 Bft) N-NW 337 1,2 C 3,6 C
26.10.2012 03:01 5,2 C 74 % 1013,0 hPa 0,0 l/m 6,1 km/h (2 Bft) N-NW 337 1,0 C 3,9 C
26.10.2012 03:06 5,1 C 75 % 1013,0 hPa 0,0 l/m 10,4 km/h (2 Bft) NW 315 1,0 C 2,7 C
26.10.2012 03:11 4,9 C 75 % 1013,1 hPa 0,0 l/m 9,7 km/h (2 Bft) N-NW 337 0,8 C 2,6 C
26.10.2012 03:16 4,9 C 74 % 1013,1 hPa 0,0 l/m 7,2 km/h (2 Bft) NW 315 0,7 C 3,2 C
26.10.2012 03:21 4,8 C 75 % 1013,3 hPa 0,0 l/m 11,9 km/h (2 Bft) NW 315 0,8 C 2,0 C
26.10.2012 03:26 4,7 C 74 % 1013,3 hPa 0,0 l/m 5,8 km/h (2 Bft) N-NO 22 0,5 C 3,4 C
26.10.2012 03:31 4,6 C 74 % 1013,4 hPa 0,0 l/m 2,5 km/h (1 Bft) NW 315 0,4 C 4,6 C
26.10.2012 03:36 4,5 C 75 % 1013,5 hPa 0,0 l/m 7,2 km/h (2 Bft) N-NW 337 0,5 C 2,8 C
26.10.2012 03:41 4,4 C 76 % 1013,5 hPa 0,0 l/m 2,2 km/h (1 Bft) NW 315 0,5 C 4,4 C
26.10.2012 03:46 4,3 C 76 % 1013,4 hPa 0,0 l/m 3,2 km/h (1 Bft) N-NW 337 0,5 C 4,3 C
26.10.2012 03:51 4,1 C 76 % 1013,6 hPa 0,0 l/m 3,2 km/h (1 Bft) N-NW 337 0,3 C 4,1 C
26.10.2012 03:56 4,1 C 77 % 1013,7 hPa 0,0 l/m 8,3 km/h (2 Bft) N-NW 337 0,4 C 2,0 C
26.10.2012 04:01 3,9 C 77 % 1013,8 hPa 0,0 l/m 8,3 km/h (2 Bft) N-NW 337 0,2 C 1,8 C
26.10.2012 04:06 3,9 C 78 % 1013,9 hPa 0,0 l/m 3,6 km/h (1 Bft) NW 315 0,4 C 3,9 C
26.10.2012 04:11 3,9 C 78 % 1014,0 hPa 0,0 l/m 1,4 km/h (1 Bft) N-NO 22 0,4 C 3,9 C
26.10.2012 04:16 3,9 C 78 % 1014,0 hPa 0,0 l/m 2,9 km/h (1 Bft) W-NW 292 0,4 C 3,9 C
26.10.2012 04:21 3,9 C 78 % 1014,2 hPa 0,0 l/m 6,8 km/h (2 Bft) N 360 0,4 C 2,2 C
26.10.2012 04:26 3,9 C 78 % 1014,3 hPa 0,0 l/m 2,2 km/h (1 Bft) NW 315 0,4 C 3,9 C
26.10.2012 04:31 3,9 C 77 % 1014,2 hPa 0,0 l/m 4,7 km/h (1 Bft) N-NO 22 0,2 C 3,0 C
26.10.2012 04:36 3,8 C 77 % 1014,3 hPa 0,0 l/m 3,6 km/h (1 Bft) N 360 0,1 C 3,8 C
26.10.2012 04:41 3,8 C 77 % 1014,2 hPa 0,0 l/m 8,3 km/h (2 Bft) N-NO 22 0,1 C 1,6 C
26.10.2012 04:46 3,8 C 77 % 1014,3 hPa 0,0 l/m 7,2 km/h (2 Bft) N-NO 22 0,1 C 2,0 C
26.10.2012 04:51 3,6 C 78 % 1014,2 hPa 0,0 l/m 2,9 km/h (1 Bft) N-NO 22 0,1 C 3,6 C
26.10.2012 04:56 3,5 C 78 % 1014,3 hPa 0,0 l/m 8,3 km/h (2 Bft) N 360 0,0 C 1,3 C
26.10.2012 05:01 3,4 C 79 % 1014,4 hPa 0,0 l/m 5,0 km/h (1 Bft) NO 45 0,1 C 2,3 C
26.10.2012 05:06 3,3 C 79 % 1014,4 hPa 0,0 l/m 5,8 km/h (2 Bft) N-NW 337 0,0 C 1,8 C
26.10.2012 05:11 3,2 C 79 % 1014,5 hPa 0,0 l/m 2,5 km/h (1 Bft) N-NO 22 -0,1 C 3,2 C
26.10.2012 05:16 3,1 C 80 % 1014,6 hPa 0,0 l/m 0,0 km/h (0 Bft) N 360 -0,0 C 3,1 C
26.10.2012 05:21 3,0 C 80 % 1014,6 hPa 0,0 l/m 0,0 km/h (0 Bft) N 360 -0,1 C 3,0 C
26.10.2012 05:26 2,9 C 80 % 1014,5 hPa 0,0 l/m 0,0 km/h (0 Bft) N-NW 337 -0,2 C 2,9 C
26.10.2012 05:31 2,8 C 80 % 1014,5 hPa 0,0 l/m 2,9 km/h (1 Bft) N-NW 337 -0,3 C 2,8 C
26.10.2012 05:36 2,6 C 80 % 1014,6 hPa 0,0 l/m 1,1 km/h (1 Bft) N-NW 337 -0,5 C 2,6 C
26.10.2012 05:41 2,5 C 81 % 1014,6 hPa 0,0 l/m 3,6 km/h (1 Bft) N-NW 337 -0,4 C 2,5 C
26.10.2012 05:46 2,4 C 81 % 1014,7 hPa 0,0 l/m 3,2 km/h (1 Bft) NW 315 -0,5 C 2,4 C
26.10.2012 05:51 2,4 C 81 % 1014,9 hPa 0,0 l/m 0,0 km/h (0 Bft) N-NW 337 -0,5 C 2,4 C
26.10.2012 05:56 2,3 C 81 % 1014,8 hPa 0,0 l/m 0,0 km/h (0 Bft) N-NW 337 -0,6 C 2,3 C
26.10.2012 06:01 2,2 C 82 % 1014,9 hPa 0,0 l/m 1,8 km/h (1 Bft) N-NW 337 -0,5 C 2,2 C
26.10.2012 06:06 2,1 C 82 % 1014,8 hPa 0,0 l/m 5,0 km/h (1 Bft) N 360 -0,6 C 0,8 C
26.10.2012 06:11 1,9 C 82 % 1014,8 hPa 0,0 l/m 2,9 km/h (1 Bft) N 360 -0,8 C 1,9 C
26.10.2012 06:16 1,9 C 82 % 1014,8 hPa 0,0 l/m 1,1 km/h (1 Bft) N-NW 337 -0,8 C 1,9 C
26.10.2012 06:21 1,9 C 82 % 1014,9 hPa 0,0 l/m 4,0 km/h (1 Bft) N-NW 337 -0,8 C 1,9 C
26.10.2012 06:26 1,8 C 83 % 1014,9 hPa 0,0 l/m 0,0 km/h (0 Bft) N-NW 337 -0,8 C 1,8 C
26.10.2012 06:31 1,7 C 83 % 1015,0 hPa 0,0 l/m 0,0 km/h (0 Bft) W-SW 247 -0,9 C 1,7 C
26.10.2012 06:36 1,6 C 83 % 1015,1 hPa 0,0 l/m 0,0 km/h (0 Bft) W-SW 247 -1,0 C 1,6 C
26.10.2012 06:41 1,5 C 83 % 1015,0 hPa 0,0 l/m 0,0 km/h (0 Bft) W-NW 292 -1,1 C 1,5 C
26.10.2012 06:46 1,4 C 83 % 1014,9 hPa 0,0 l/m 0,0 km/h (0 Bft) W-NW 292 -1,2 C 1,4 C
26.10.2012 06:51 1,3 C 83 % 1014,9 hPa 0,0 l/m 0,0 km/h (0 Bft) W-NW 292 -1,3 C 1,3 C
26.10.2012 06:56 1,3 C 83 % 1014,9 hPa 0,0 l/m 0,0 km/h (0 Bft) W-NW 292 -1,3 C 1,3 C
26.10.2012 07:01 1,3 C 83 % 1015,0 hPa 0,0 l/m 0,0 km/h (0 Bft) W-NW 292 -1,3 C 1,3 C
26.10.2012 07:06 1,3 C 84 % 1015,0 hPa 0,0 l/m 2,5 km/h (1 Bft) W 270 -1,1 C 1,3 C
26.10.2012 07:11 1,3 C 84 % 1015,0 hPa 0,0 l/m 4,0 km/h (1 Bft) W-NW 292 -1,1 C 1,3 C
26.10.2012 07:16 1,3 C 84 % 1015,1 hPa 0,0 l/m 1,4 km/h (1 Bft) W-NW 292 -1,1 C 1,3 C
26.10.2012 07:21 1,1 C 84 % 1015,2 hPa 0,0 l/m 0,0 km/h (0 Bft) W-NW 292 -1,3 C 1,1 C
26.10.2012 07:26 1,1 C 84 % 1015,2 hPa 0,0 l/m 2,5 km/h (1 Bft) W-NW 292 -1,3 C 1,1 C
26.10.2012 07:31 1,0 C 84 % 1015,1 hPa 0,0 l/m 1,8 km/h (1 Bft) W-SW 247 -1,4 C 1,0 C
26.10.2012 07:36 0,9 C 85 % 1015,3 hPa 0,0 l/m 0,0 km/h (0 Bft) W-SW 247 -1,3 C 0,9 C
26.10.2012 07:41 0,9 C 85 % 1015,2 hPa 0,0 l/m 2,2 km/h (1 Bft) W-SW 247 -1,3 C 0,9 C
26.10.2012 07:46 0,9 C 85 % 1015,2 hPa 0,0 l/m 3,6 km/h (1 Bft) W-SW 247 -1,3 C 0,9 C
26.10.2012 07:51 0,9 C 85 % 1015,2 hPa 0,0 l/m 0,0 km/h (0 Bft) W-SW 247 -1,3 C 0,9 C
26.10.2012 07:56 0,8 C 85 % 1015,3 hPa 0,0 l/m 0,0 km/h (0 Bft) W-SW 247 -1,4 C 0,8 C
26.10.2012 08:01 0,7 C 85 % 1015,2 hPa 0,0 l/m 1,1 km/h (1 Bft) W-SW 247 -1,5 C 0,7 C
26.10.2012 08:06 0,7 C 85 % 1015,3 hPa 0,0 l/m 0,0 km/h (0 Bft) W-SW 247 -1,5 C 0,7 C
26.10.2012 08:11 0,7 C 85 % 1015,4 hPa 0,0 l/m 1,4 km/h (1 Bft) W-SW 247 -1,5 C 0,7 C
26.10.2012 08:16 0,6 C 85 % 1015,4 hPa 0,0 l/m 0,0 km/h (0 Bft) W-SW 247 -1,6 C 0,6 C
26.10.2012 08:21 0,6 C 85 % 1015,5 hPa 0,0 l/m 2,2 km/h (1 Bft) W-NW 292 -1,6 C 0,6 C
26.10.2012 08:26 0,6 C 85 % 1015,6 hPa 0,0 l/m 0,0 km/h (0 Bft) W-NW 292 -1,6 C 0,6 C
26.10.2012 08:31 0,6 C 85 % 1015,4 hPa 0,0 l/m 0,0 km/h (0 Bft) W-NW 292 -1,6 C 0,6 C
26.10.2012 08:36 0,6 C 86 % 1015,6 hPa 0,0 l/m 0,0 km/h (0 Bft) W-NW 292 -1,5 C 0,6 C
26.10.2012 08:41 0,6 C 86 % 1015,6 hPa 0,0 l/m 2,2 km/h (1 Bft) W-NW 292 -1,5 C 0,6 C
26.10.2012 08:46 0,8 C 86 % 1015,6 hPa 0,0 l/m 0,0 km/h (0 Bft) NW 315 -1,3 C 0,8 C
26.10.2012 08:51 0,8 C 86 % 1015,6 hPa 0,0 l/m 1,4 km/h (1 Bft) NW 315 -1,3 C 0,8 C
26.10.2012 08:56 0,9 C 86 % 1015,6 hPa 0,0 l/m 2,9 km/h (1 Bft) N-NO 22 -1,2 C 0,9 C
26.10.2012 09:01 0,9 C 87 % 1015,6 hPa 0,0 l/m 3,2 km/h (1 Bft) N 360 -1,0 C 0,9 C
26.10.2012 09:06 0,9 C 87 % 1015,5 hPa 0,0 l/m 4,3 km/h (1 Bft) N 360 -1,0 C 0,9 C
26.10.2012 09:11 0,9 C 87 % 1015,4 hPa 0,0 l/m 4,0 km/h (1 Bft) N 360 -1,0 C 0,9 C
26.10.2012 09:16 0,9 C 87 % 1015,5 hPa 0,0 l/m 2,5 km/h (1 Bft) N-NO 22 -1,0 C 0,9 C
26.10.2012 09:21 1,0 C 87 % 1015,6 hPa 0,0 l/m 0,0 km/h (0 Bft) N 360 -0,9 C 1,0 C
26.10.2012 09:26 1,2 C 87 % 1015,7 hPa 0,0 l/m 3,6 km/h (1 Bft) N 360 -0,7 C 1,2 C
26.10.2012 09:31 1,3 C 87 % 1015,6 hPa 0,0 l/m 0,0 km/h (0 Bft) N 360 -0,6 C 1,3 C
26.10.2012 09:36 1,4 C 87 % 1015,6 hPa 0,0 l/m 0,0 km/h (0 Bft) W-NW 292 -0,5 C 1,4 C
26.10.2012 09:41 1,6 C 87 % 1015,7 hPa 0,0 l/m 0,0 km/h (0 Bft) W-NW 292 -0,3 C 1,6 C
26.10.2012 09:46 1,8 C 87 % 1015,8 hPa 0,0 l/m 0,0 km/h (0 Bft) W-NW 292 -0,1 C 1,8 C
26.10.2012 09:51 1,9 C 87 % 1015,7 hPa 0,0 l/m 0,0 km/h (0 Bft) NW 315 -0,0 C 1,9 C
26.10.2012 09:56 2,1 C 87 % 1015,7 hPa 0,0 l/m 0,0 km/h (0 Bft) NW 315 0,2 C 2,1 C
26.10.2012 10:01 2,3 C 87 % 1015,6 hPa 0,0 l/m 1,1 km/h (1 Bft) NW 315 0,4 C 2,3 C
26.10.2012 10:06 2,4 C 86 % 1015,8 hPa 0,0 l/m 0,0 km/h (0 Bft) NW 315 0,3 C 2,4 C
26.10.2012 10:11 2,6 C 86 % 1015,8 hPa 0,0 l/m 0,0 km/h (0 Bft) NW 315 0,5 C 2,6 C
26.10.2012 10:16 2,8 C 86 % 1015,8 hPa 0,0 l/m 1,4 km/h (1 Bft) W-NW 292 0,7 C 2,8 C
26.10.2012 10:21 3,0 C 86 % 1015,8 hPa 0,0 l/m 0,0 km/h (0 Bft) W-NW 292 0,9 C 3,0 C
26.10.2012 10:26 3,2 C 86 % 1015,9 hPa 0,0 l/m 0,0 km/h (0 Bft) W 270 1,1 C 3,2 C
26.10.2012 10:31 3,3 C 85 % 1016,0 hPa 0,0 l/m 0,0 km/h (0 Bft) W 270 1,0 C 3,3 C
26.10.2012 10:36 3,5 C 85 % 1016,0 hPa 0,0 l/m 0,0 km/h (0 Bft) W 270 1,2 C 3,5 C
26.10.2012 10:41 3,6 C 85 % 1016,0 hPa 0,0 l/m 1,1 km/h (1 Bft) W 270 1,3 C 3,6 C
26.10.2012 10:46 3,8 C 84 % 1016,0 hPa 0,0 l/m 1,1 km/h (1 Bft) W 270 1,4 C 3,8 C
26.10.2012 10:51 3,9 C 84 % 1015,8 hPa 0,0 l/m 0,0 km/h (0 Bft) W 270 1,4 C 3,9 C
26.10.2012 10:56 4,1 C 83 % 1015,8 hPa 0,0 l/m 0,0 km/h (0 Bft) W 270 1,5 C 4,1 C
26.10.2012 11:01 4,2 C 82 % 1015,9 hPa 0,0 l/m 3,2 km/h (1 Bft) W 270 1,4 C 4,2 C
26.10.2012 11:06 4,4 C 82 % 1015,8 hPa 0,0 l/m 1,4 km/h (1 Bft) W 270 1,6 C 4,4 C
26.10.2012 11:11 4,5 C 80 % 1015,8 hPa 0,0 l/m 0,0 km/h (0 Bft) W 270 1,4 C 4,5 C
26.10.2012 11:16 4,7 C 79 % 1015,8 hPa 0,0 l/m 4,3 km/h (1 Bft) SW 225 1,4 C 4,7 C
26.10.2012 11:21 4,9 C 78 % 1015,8 hPa 0,0 l/m 0,0 km/h (0 Bft) S-SW 202 1,4 C 4,9 C
26.10.2012 11:26 5,1 C 77 % 1015,8 hPa 0,0 l/m 2,9 km/h (1 Bft) S-SW 202 1,4 C 5,1 C
26.10.2012 11:31 5,3 C 75 % 1015,7 hPa 0,0 l/m 4,0 km/h (1 Bft) S-SO 157 1,2 C 5,3 C
26.10.2012 11:36 5,3 C 71 % 1015,7 hPa 0,0 l/m 1,1 km/h (1 Bft) O 90 0,5 C 5,3 C
26.10.2012 11:41 5,6 C 71 % 1015,7 hPa 0,0 l/m 0,0 km/h (0 Bft) O-SO 112 0,8 C 5,6 C
26.10.2012 11:46 5,8 C 62 % 1015,7 hPa 0,0 l/m 2,5 km/h (1 Bft) N-NO 22 -0,9 C 5,8 C
26.10.2012 11:51 5,9 C 62 % 1015,5 hPa 0,0 l/m 3,2 km/h (1 Bft) S-SO 157 -0,8 C 5,9 C
26.10.2012 11:56 6,1 C 63 % 1015,4 hPa 0,0 l/m 5,8 km/h (2 Bft) SO 135 -0,4 C 5,1 C
26.10.2012 12:01 6,4 C 63 % 1015,3 hPa 0,0 l/m 0,0 km/h (0 Bft) S-SO 157 -0,1 C 6,4 C
26.10.2012 12:06 6,5 C 58 % 1015,2 hPa 0,0 l/m 6,1 km/h (2 Bft) O 90 -1,2 C 5,4 C
26.10.2012 12:11 6,4 C 56 % 1015,1 hPa 0,0 l/m 0,0 km/h (0 Bft) O 90 -1,7 C 6,4 C
26.10.2012 12:16 6,5 C 56 % 1015,2 hPa 0,0 l/m 0,0 km/h (0 Bft) O-SO 112 -1,6 C 6,5 C
26.10.2012 12:21 6,6 C 57 % 1015,1 hPa 0,0 l/m 1,8 km/h (1 Bft) SO 135 -1,3 C 6,6 C
26.10.2012 12:26 6,8 C 57 % 1014,9 hPa 0,0 l/m 0,0 km/h (0 Bft) O-SO 112 -1,1 C 6,8 C
26.10.2012 12:31 6,9 C 53 % 1014,8 hPa 0,0 l/m 2,5 km/h (1 Bft) N 360 -2,0 C 6,9 C
26.10.2012 12:36 6,9 C 55 % 1014,8 hPa 0,0 l/m 0,0 km/h (0 Bft) SO 135 -1,5 C 6,9 C
26.10.2012 12:41 6,9 C 54 % 1014,7 hPa 0,0 l/m 2,5 km/h (1 Bft) S 180 -1,8 C 6,9 C
26.10.2012 12:46 6,9 C 54 % 1014,6 hPa 0,0 l/m 0,0 km/h (0 Bft) O-SO 112 -1,8 C 6,9 C
26.10.2012 12:51 7,1 C 54 % 1014,6 hPa 0,0 l/m 1,4 km/h (1 Bft) W-SW 247 -1,6 C 7,1 C
26.10.2012 12:56 7,3 C 54 % 1014,5 hPa 0,0 l/m 3,2 km/h (1 Bft) SW 225 -1,4 C 7,3 C
26.10.2012 13:01 7,6 C 53 % 1014,3 hPa 0,0 l/m 0,0 km/h (0 Bft) W 270 -1,4 C 7,6 C
26.10.2012 13:06 7,7 C 50 % 1014,3 hPa 0,0 l/m 0,0 km/h (0 Bft) O-SO 112 -2,1 C 7,7 C
26.10.2012 13:11 7,6 C 49 % 1014,2 hPa 0,0 l/m 4,0 km/h (1 Bft) SO 135 -2,4 C 7,6 C
26.10.2012 13:16 7,7 C 50 % 1014,1 hPa 0,0 l/m 1,8 km/h (1 Bft) O 90 -2,1 C 7,7 C
26.10.2012 13:21 7,8 C 50 % 1013,9 hPa 0,0 l/m 4,0 km/h (1 Bft) S-SO 157 -2,0 C 7,8 C
26.10.2012 13:26 7,9 C 48 % 1013,9 hPa 0,0 l/m 3,2 km/h (1 Bft) O-SO 112 -2,4 C 7,9 C
26.10.2012 13:31 7,9 C 49 % 1013,8 hPa 0,0 l/m 3,2 km/h (1 Bft) S-SO 157 -2,1 C 7,9 C
26.10.2012 13:36 8,1 C 48 % 1013,8 hPa 0,0 l/m 2,2 km/h (1 Bft) S-SW 202 -2,2 C 8,1 C
26.10.2012 13:41 8,3 C 49 % 1013,8 hPa 0,0 l/m 2,2 km/h (1 Bft) S-SW 202 -1,8 C 8,3 C
26.10.2012 13:46 8,3 C 46 % 1013,6 hPa 0,0 l/m 4,3 km/h (1 Bft) SO 135 -2,6 C 8,3 C
26.10.2012 13:51 7,9 C 46 % 1013,6 hPa 0,0 l/m 2,2 km/h (1 Bft) O-SO 112 -3,0 C 7,9 C
26.10.2012 13:56 7,8 C 46 % 1013,5 hPa 0,0 l/m 0,0 km/h (0 Bft) NO 45 -3,1 C 7,8 C
26.10.2012 14:01 7,7 C 47 % 1013,5 hPa 0,0 l/m 6,8 km/h (2 Bft) SO 135 -2,9 C 6,6 C
26.10.2012 14:06 7,8 C 49 % 1013,4 hPa 0,0 l/m 0,0 km/h (0 Bft) S 180 -2,2 C 7,8 C
26.10.2012 14:11 7,9 C 47 % 1013,4 hPa 0,0 l/m 2,9 km/h (1 Bft) O-SO 112 -2,7 C 7,9 C
26.10.2012 14:16 7,6 C 47 % 1013,1 hPa 0,0 l/m 0,0 km/h (0 Bft) O 90 -3,0 C 7,6 C
26.10.2012 14:21 7,6 C 47 % 1013,1 hPa 0,0 l/m 0,0 km/h (0 Bft) O-SO 112 -3,0 C 7,6 C
26.10.2012 14:26 7,5 C 48 % 1013,0 hPa 0,0 l/m 9,4 km/h (2 Bft) SO 135 -2,8 C 5,8 C
26.10.2012 14:31 7,4 C 49 % 1013,1 hPa 0,0 l/m 0,0 km/h (0 Bft) S-SO 157 -2,6 C 7,4 C
26.10.2012 14:36 7,4 C 49 % 1012,8 hPa 0,0 l/m 4,3 km/h (1 Bft) SO 135 -2,6 C 7,4 C
26.10.2012 14:41 7,4 C 49 % 1012,8 hPa 0,0 l/m 0,0 km/h (0 Bft) SO 135 -2,6 C 7,4 C
26.10.2012 14:46 7,6 C 50 % 1012,9 hPa 0,0 l/m 2,5 km/h (1 Bft) SO 135 -2,1 C 7,6 C
26.10.2012 14:51 7,8 C 48 % 1012,8 hPa 0,0 l/m 3,6 km/h (1 Bft) S-SO 157 -2,5 C 7,8 C
26.10.2012 14:56 7,8 C 49 % 1012,7 hPa 0,0 l/m 5,8 km/h (2 Bft) SO 135 -2,2 C 7,0 C
26.10.2012 15:01 7,8 C 49 % 1012,7 hPa 0,0 l/m 3,2 km/h (1 Bft) O 90 -2,2 C 7,8 C
26.10.2012 15:06 7,6 C 46 % 1012,4 hPa 0,0 l/m 2,9 km/h (1 Bft) SO 135 -3,3 C 7,6 C
26.10.2012 15:11 7,5 C 46 % 1012,3 hPa 0,0 l/m 2,2 km/h (1 Bft) SO 135 -3,4 C 7,5 C
26.10.2012 15:16 7,3 C 46 % 1012,3 hPa 0,0 l/m 1,8 km/h (1 Bft) SO 135 -3,5 C 7,3 C
26.10.2012 15:21 7,2 C 47 % 1012,3 hPa 0,0 l/m 4,3 km/h (1 Bft) S-SO 157 -3,3 C 7,2 C
26.10.2012 15:26 7,2 C 47 % 1012,1 hPa 0,0 l/m 2,2 km/h (1 Bft) SO 135 -3,3 C 7,2 C
26.10.2012 15:31 7,2 C 47 % 1012,0 hPa 0,0 l/m 3,2 km/h (1 Bft) SO 135 -3,3 C 7,2 C
26.10.2012 15:36 7,2 C 47 % 1012,0 hPa 0,0 l/m 0,0 km/h (0 Bft) S-SO 157 -3,3 C 7,2 C
26.10.2012 15:41 7,2 C 48 % 1012,0 hPa 0,0 l/m 2,9 km/h (1 Bft) S-SO 157 -3,1 C 7,2 C
26.10.2012 15:46 7,4 C 48 % 1012,0 hPa 0,0 l/m 3,6 km/h (1 Bft) S 180 -2,9 C 7,4 C
26.10.2012 15:51 7,4 C 48 % 1012,0 hPa 0,0 l/m 0,0 km/h (0 Bft) O-SO 112 -2,9 C 7,4 C
26.10.2012 15:56 7,4 C 48 % 1011,8 hPa 0,0 l/m 3,6 km/h (1 Bft) SO 135 -2,9 C 7,4 C
26.10.2012 16:01 7,4 C 47 % 1011,8 hPa 0,0 l/m 3,6 km/h (1 Bft) S-SO 157 -3,2 C 7,4 C
26.10.2012 16:06 7,3 C 46 % 1011,7 hPa 0,0 l/m 7,6 km/h (2 Bft) O-SO 112 -3,5 C 5,9 C
26.10.2012 16:11 7,1 C 44 % 1011,6 hPa 0,0 l/m 0,0 km/h (0 Bft) SO 135 -4,3 C 7,1 C
26.10.2012 16:16 6,9 C 45 % 1011,6 hPa 0,0 l/m 4,0 km/h (1 Bft) SO 135 -4,2 C 6,9 C
26.10.2012 16:21 6,9 C 45 % 1011,6 hPa 0,0 l/m 4,3 km/h (1 Bft) S 180 -4,2 C 6,9 C
26.10.2012 16:26 6,8 C 44 % 1011,6 hPa 0,0 l/m 4,0 km/h (1 Bft) O-SO 112 -4,6 C 6,8 C
26.10.2012 16:31 6,6 C 45 % 1011,6 hPa 0,0 l/m 2,9 km/h (1 Bft) SO 135 -4,5 C 6,6 C
26.10.2012 16:36 6,5 C 46 % 1011,4 hPa 0,0 l/m 1,4 km/h (1 Bft) SO 135 -4,3 C 6,5 C
26.10.2012 16:41 6,4 C 47 % 1011,3 hPa 0,0 l/m 0,0 km/h (0 Bft) SO 135 -4,1 C 6,4 C
26.10.2012 16:46 6,4 C 48 % 1011,0 hPa 0,0 l/m 1,1 km/h (1 Bft) SO 135 -3,8 C 6,4 C
26.10.2012 16:51 6,3 C 49 % 1011,0 hPa 0,0 l/m 4,7 km/h (1 Bft) O-SO 112 -3,6 C 5,7 C
26.10.2012 16:56 6,1 C 49 % 1010,9 hPa 0,0 l/m 0,0 km/h (0 Bft) O-SO 112 -3,8 C 6,1 C
26.10.2012 17:01 6,1 C 50 % 1010,9 hPa 0,0 l/m 0,0 km/h (0 Bft) O-SO 112 -3,5 C 6,1 C
26.10.2012 17:06 5,9 C 51 % 1010,9 hPa 0,0 l/m 0,0 km/h (0 Bft) O-SO 112 -3,4 C 5,9 C
26.10.2012 17:11 5,8 C 51 % 1011,0 hPa 0,0 l/m 0,0 km/h (0 Bft) O-SO 112 -3,5 C 5,8 C
26.10.2012 17:16 5,6 C 52 % 1010,9 hPa 0,0 l/m 0,0 km/h (0 Bft) O-SO 112 -3,5 C 5,6 C
26.10.2012 17:21 5,5 C 53 % 1011,1 hPa 0,0 l/m 0,0 km/h (0 Bft) O-SO 112 -3,3 C 5,5 C
26.10.2012 17:26 5,4 C 54 % 1010,8 hPa 0,0 l/m 0,0 km/h (0 Bft) O-SO 112 -3,1 C 5,4 C
26.10.2012 17:31 5,3 C 55 % 1010,7 hPa 0,0 l/m 0,0 km/h (0 Bft) O-SO 112 -3,0 C 5,3 C
26.10.2012 17:36 5,3 C 56 % 1010,7 hPa 0,0 l/m 1,1 km/h (1 Bft) O-SO 112 -2,8 C 5,3 C
26.10.2012 17:41 5,1 C 57 % 1010,8 hPa 0,0 l/m 0,0 km/h (0 Bft) O-SO 112 -2,7 C 5,1 C
26.10.2012 17:46 5,1 C 57 % 1010,5 hPa 0,0 l/m 0,0 km/h (0 Bft) O-SO 112 -2,7 C 5,1 C
26.10.2012 17:51 4,9 C 57 % 1010,5 hPa 0,0 l/m 0,0 km/h (0 Bft) O-SO 112 -2,9 C 4,9 C
26.10.2012 17:56 4,8 C 58 % 1010,4 hPa 0,0 l/m 0,0 km/h (0 Bft) O-SO 112 -2,7 C 4,8 C
26.10.2012 18:01 4,7 C 58 % 1010,2 hPa 0,0 l/m 0,0 km/h (0 Bft) O-SO 112 -2,8 C 4,7 C
26.10.2012 18:06 4,6 C 58 % 1010,3 hPa 0,0 l/m 0,0 km/h (0 Bft) O-SO 112 -2,9 C 4,6 C
26.10.2012 18:11 4,4 C 59 % 1010,3 hPa 0,0 l/m 0,0 km/h (0 Bft) SO 135 -2,9 C 4,4 C
26.10.2012 18:16 4,4 C 60 % 1010,1 hPa 0,0 l/m 0,0 km/h (0 Bft) O-SO 112 -2,7 C 4,4 C
26.10.2012 18:21 4,3 C 60 % 1010,2 hPa 0,0 l/m 0,0 km/h (0 Bft) O-SO 112 -2,8 C 4,3 C
26.10.2012 18:26 4,2 C 60 % 1010,3 hPa 0,0 l/m 0,0 km/h (0 Bft) O-SO 112 -2,9 C 4,2 C
26.10.2012 18:31 4,1 C 60 % 1010,0 hPa 0,0 l/m 0,0 km/h (0 Bft) O-SO 112 -3,0 C 4,1 C
26.10.2012 18:36 3,9 C 61 % 1010,1 hPa 0,0 l/m 0,0 km/h (0 Bft) O-SO 112 -2,9 C 3,9 C
26.10.2012 18:41 3,9 C 61 % 1009,9 hPa 0,0 l/m 0,0 km/h (0 Bft) O-SO 112 -2,9 C 3,9 C
26.10.2012 18:46 3,8 C 61 % 1010,0 hPa 0,0 l/m 0,0 km/h (0 Bft) O-SO 112 -3,0 C 3,8 C
26.10.2012 18:51 3,8 C 61 % 1009,9 hPa 0,0 l/m 0,0 km/h (0 Bft) O-SO 112 -3,0 C 3,8 C
26.10.2012 18:56 3,7 C 62 % 1009,8 hPa 0,0 l/m 0,0 km/h (0 Bft) O-SO 112 -2,9 C 3,7 C
26.10.2012 19:01 3,6 C 62 % 1009,8 hPa 0,0 l/m 0,0 km/h (0 Bft) O-SO 112 -3,0 C 3,6 C
26.10.2012 19:06 3,6 C 63 % 1009,8 hPa 0,0 l/m 0,0 km/h (0 Bft) O-SO 112 -2,8 C 3,6 C
26.10.2012 19:11 3,5 C 63 % 1009,8 hPa 0,0 l/m 0,0 km/h (0 Bft) O-SO 112 -2,9 C 3,5 C
26.10.2012 19:16 3,4 C 63 % 1009,8 hPa 0,0 l/m 0,0 km/h (0 Bft) NO 45 -3,0 C 3,4 C
26.10.2012 19:21 3,3 C 63 % 1009,8 hPa 0,0 l/m 0,0 km/h (0 Bft) NO 45 -3,1 C 3,3 C
26.10.2012 19:26 3,3 C 63 % 1009,8 hPa 0,0 l/m 0,0 km/h (0 Bft) O-NO 67 -3,1 C 3,3 C
26.10.2012 19:31 3,3 C 63 % 1009,8 hPa 0,0 l/m 0,0 km/h (0 Bft) O-NO 67 -3,1 C 3,3 C
26.10.2012 19:36 3,3 C 63 % 1009,7 hPa 0,0 l/m 0,0 km/h (0 Bft) NO 45 -3,1 C 3,3 C
26.10.2012 19:41 3,2 C 64 % 1009,3 hPa 0,0 l/m 2,2 km/h (1 Bft) O-NO 67 -2,9 C 3,2 C
26.10.2012 19:46 3,2 C 64 % 1009,4 hPa 0,0 l/m 1,1 km/h (1 Bft) O-SO 112 -2,9 C 3,2 C
26.10.2012 19:51 3,2 C 65 % 1009,3 hPa 0,0 l/m 1,4 km/h (1 Bft) O-SO 112 -2,7 C 3,2 C
26.10.2012 19:56 3,1 C 65 % 1009,3 hPa 0,0 l/m 0,0 km/h (0 Bft) O-SO 112 -2,8 C 3,1 C
26.10.2012 20:01 3,1 C 65 % 1009,2 hPa 0,0 l/m 1,4 km/h (1 Bft) O-SO 112 -2,8 C 3,1 C
26.10.2012 20:06 3,0 C 65 % 1009,2 hPa 0,0 l/m 0,0 km/h (0 Bft) O-SO 112 -2,9 C 3,0 C
26.10.2012 20:11 2,9 C 65 % 1009,2 hPa 0,0 l/m 1,1 km/h (1 Bft) O-SO 112 -3,0 C 2,9 C
26.10.2012 20:16 2,9 C 66 % 1009,2 hPa 0,0 l/m 0,0 km/h (0 Bft) O-SO 112 -2,8 C 2,9 C
26.10.2012 20:21 2,8 C 66 % 1009,2 hPa 0,0 l/m 0,0 km/h (0 Bft) O-SO 112 -2,9 C 2,8 C
26.10.2012 20:26 2,8 C 66 % 1009,1 hPa 0,0 l/m 0,0 km/h (0 Bft) O-SO 112 -2,9 C 2,8 C
26.10.2012 20:31 2,7 C 67 % 1009,0 hPa 0,0 l/m 2,9 km/h (1 Bft) O-SO 112 -2,8 C 2,7 C
26.10.2012 20:36 2,7 C 66 % 1008,9 hPa 0,0 l/m 2,5 km/h (1 Bft) O 90 -3,0 C 2,7 C
26.10.2012 20:41 2,6 C 66 % 1009,0 hPa 0,0 l/m 1,8 km/h (1 Bft) NO 45 -3,1 C 2,6 C
26.10.2012 20:46 2,6 C 66 % 1008,9 hPa 0,0 l/m 2,5 km/h (1 Bft) NO 45 -3,1 C 2,6 C
26.10.2012 20:51 2,5 C 67 % 1008,9 hPa 0,0 l/m 4,0 km/h (1 Bft) NO 45 -3,0 C 2,5 C
26.10.2012 20:56 2,4 C 68 % 1008,9 hPa 0,0 l/m 2,9 km/h (1 Bft) NO 45 -2,9 C 2,4 C
26.10.2012 21:01 2,4 C 67 % 1008,8 hPa 0,0 l/m 3,2 km/h (1 Bft) O-NO 67 -3,1 C 2,4 C
26.10.2012 21:06 2,3 C 68 % 1008,8 hPa 0,0 l/m 2,9 km/h (1 Bft) O-NO 67 -3,0 C 2,3 C
26.10.2012 21:11 2,3 C 68 % 1008,8 hPa 0,0 l/m 1,4 km/h (1 Bft) O-NO 67 -3,0 C 2,3 C
26.10.2012 21:16 2,2 C 69 % 1008,7 hPa 0,0 l/m 1,8 km/h (1 Bft) NO 45 -2,9 C 2,2 C
26.10.2012 21:21 2,2 C 69 % 1008,6 hPa 0,0 l/m 2,2 km/h (1 Bft) O-NO 67 -2,9 C 2,2 C
26.10.2012 21:26 2,1 C 69 % 1008,6 hPa 0,0 l/m 0,0 km/h (0 Bft) NO 45 -3,0 C 2,1 C
26.10.2012 21:31 2,1 C 69 % 1008,4 hPa 0,0 l/m 2,2 km/h (1 Bft) NO 45 -3,0 C 2,1 C
26.10.2012 21:36 2,1 C 69 % 1008,3 hPa 0,0 l/m 3,2 km/h (1 Bft) O-NO 67 -3,0 C 2,1 C
26.10.2012 21:41 2,0 C 69 % 1008,4 hPa 0,0 l/m 5,0 km/h (1 Bft) O-NO 67 -3,1 C 0,7 C
26.10.2012 21:46 1,9 C 69 % 1008,1 hPa 0,0 l/m 3,2 km/h (1 Bft) O-NO 67 -3,2 C 1,9 C
26.10.2012 21:51 2,0 C 69 % 1008,1 hPa 0,0 l/m 0,0 km/h (0 Bft) O-NO 67 -3,1 C 2,0 C
26.10.2012 21:56 1,9 C 69 % 1008,2 hPa 0,0 l/m 0,0 km/h (0 Bft) NO 45 -3,2 C 1,9 C
26.10.2012 22:01 1,9 C 69 % 1008,1 hPa 0,0 l/m 0,0 km/h (0 Bft) O-NO 67 -3,2 C 1,9 C
26.10.2012 22:06 1,9 C 69 % 1008,0 hPa 0,0 l/m 0,0 km/h (0 Bft) O-NO 67 -3,2 C 1,9 C
26.10.2012 22:11 1,9 C 69 % 1008,0 hPa 0,0 l/m 0,0 km/h (0 Bft) O-NO 67 -3,2 C 1,9 C
26.10.2012 22:16 2,0 C 70 % 1007,8 hPa 0,0 l/m 0,0 km/h (0 Bft) O-NO 67 -2,9 C 2,0 C
26.10.2012 22:21 2,0 C 70 % 1007,7 hPa 0,0 l/m 0,0 km/h (0 Bft) O-NO 67 -2,9 C 2,0 C
26.10.2012 22:26 2,0 C 70 % 1007,4 hPa 0,0 l/m 3,6 km/h (1 Bft) O-SO 112 -2,9 C 2,0 C
26.10.2012 22:31 2,0 C 70 % 1007,5 hPa 0,0 l/m 0,0 km/h (0 Bft) SO 135 -2,9 C 2,0 C
26.10.2012 22:36 2,1 C 70 % 1007,6 hPa 0,0 l/m 0,0 km/h (0 Bft) SO 135 -2,8 C 2,1 C
26.10.2012 22:41 2,0 C 71 % 1007,5 hPa 0,0 l/m 1,4 km/h (1 Bft) SO 135 -2,7 C 2,0 C
26.10.2012 22:46 1,9 C 71 % 1007,4 hPa 0,0 l/m 0,0 km/h (0 Bft) O-SO 112 -2,8 C 1,9 C
26.10.2012 22:51 1,9 C 71 % 1007,4 hPa 0,0 l/m 0,0 km/h (0 Bft) O-SO 112 -2,8 C 1,9 C
26.10.2012 22:56 1,9 C 71 % 1007,4 hPa 0,0 l/m 0,0 km/h (0 Bft) O-SO 112 -2,8 C 1,9 C
26.10.2012 23:01 1,9 C 71 % 1007,3 hPa 0,0 l/m 1,1 km/h (1 Bft) O-SO 112 -2,8 C 1,9 C
26.10.2012 23:06 1,9 C 71 % 1007,0 hPa 0,0 l/m 0,0 km/h (0 Bft) O-SO 112 -2,8 C 1,9 C
26.10.2012 23:11 1,8 C 71 % 1007,0 hPa 0,0 l/m 0,0 km/h (0 Bft) O-SO 112 -2,9 C 1,8 C
26.10.2012 23:16 1,9 C 71 % 1007,1 hPa 0,0 l/m 1,1 km/h (1 Bft) O-SO 112 -2,8 C 1,9 C
26.10.2012 23:21 1,8 C 71 % 1006,9 hPa 0,0 l/m 1,4 km/h (1 Bft) O-SO 112 -2,9 C 1,8 C
26.10.2012 23:26 1,8 C 71 % 1006,7 hPa 0,0 l/m 2,2 km/h (1 Bft) O-SO 112 -2,9 C 1,8 C
26.10.2012 23:31 1,8 C 71 % 1006,9 hPa 0,0 l/m 0,0 km/h (0 Bft) O-SO 112 -2,9 C 1,8 C
26.10.2012 23:36 1,8 C 71 % 1006,9 hPa 0,0 l/m 3,6 km/h (1 Bft) O 90 -2,9 C 1,8 C
26.10.2012 23:41 1,8 C 71 % 1006,6 hPa 0,0 l/m 0,0 km/h (0 Bft) O 90 -2,9 C 1,8 C
26.10.2012 23:46 1,8 C 71 % 1006,7 hPa 0,0 l/m 2,5 km/h (1 Bft) O-SO 112 -2,9 C 1,8 C
26.10.2012 23:51 1,8 C 71 % 1006,5 hPa 0,0 l/m 1,4 km/h (1 Bft) O 90 -2,9 C 1,8 C
26.10.2012 23:56 1,7 C 72 % 1006,7 hPa 0,0 l/m 2,2 km/h (1 Bft) O 90 -2,8 C 1,7 C
_ Min-Zeit 08:16 16:11 23:51 - 01:46 - - 16:26 08:16
Minimum _ 0,6 C 44 % 1006,5 hPa - 0,0 km/h (0 Bft) - - -4,6 C 0,6 C
_ Max-Zeit 13:41 09:01 10:31 00:01 01:11 - - 00:16 13:41
Maximum _ 8,3 C 87 % 1016,0 hPa 0,0 l/m 18,0 km/h
NW (3 Bft)
- - 4,6 C 8,3 C
Durchschnitt _ 4,2 C 70 % 1012,4 hPa #0,0 l/m 2,7 km/h (1 Bft) SO - -1,1 C 3,9 C
(c) by David Heller